createdAt,value
2023-03-29T00:04:59.578Z,986.45
2023-03-29T00:17:00.079Z,986.35
2023-03-29T00:29:00.563Z,986.21
2023-03-29T00:41:01.374Z,986.09
2023-03-29T00:53:01.385Z,986.08
2023-03-29T01:17:02.378Z,985.99
2023-03-29T01:29:04.966Z,985.89
2023-03-29T01:41:03.672Z,985.86
2023-03-29T01:53:03.662Z,985.88
2023-03-29T02:05:04.124Z,985.85
2023-03-29T02:17:04.553Z,985.92
2023-03-29T02:29:05.010Z,985.91
2023-03-29T02:41:05.411Z,985.94
2023-03-29T02:53:05.875Z,985.98
2023-03-29T03:05:06.365Z,985.98
2023-03-29T03:17:06.819Z,985.91
2023-03-29T03:29:07.208Z,985.89
2023-03-29T03:41:07.739Z,985.78
2023-03-29T03:53:08.184Z,985.87
2023-03-29T04:05:08.581Z,985.60
2023-03-29T04:17:09.052Z,985.54
2023-03-29T04:29:09.524Z,985.52
2023-03-29T04:41:09.957Z,985.54
2023-03-29T04:53:10.411Z,985.36
2023-03-29T05:05:10.859Z,985.19
2023-03-29T05:17:11.304Z,985.02
2023-03-29T05:29:11.750Z,985.05
2023-03-29T05:41:12.202Z,985.16
2023-03-29T05:53:12.658Z,985.13
2023-03-29T06:05:13.120Z,984.95
2023-03-29T06:17:13.692Z,984.95
2023-03-29T06:29:13.993Z,984.96
2023-03-29T06:41:14.495Z,984.83
2023-03-29T06:53:14.908Z,984.79
2023-03-29T07:05:15.383Z,984.80
2023-03-29T07:17:15.805Z,984.66
2023-03-29T07:29:16.292Z,984.56
2023-03-29T07:41:16.721Z,984.64
2023-03-29T07:53:17.194Z,984.64
2023-03-29T08:05:29.234Z,984.46
2023-03-29T08:17:18.055Z,984.57
2023-03-29T08:29:18.616Z,984.60
2023-03-29T08:41:19.012Z,984.53
2023-03-29T08:53:19.440Z,984.55
2023-03-29T09:05:19.878Z,984.64
2023-03-29T09:17:20.455Z,984.67
2023-03-29T09:29:20.805Z,984.68
2023-03-29T09:41:21.228Z,984.69
2023-03-29T09:53:21.703Z,984.81
2023-03-29T10:05:22.159Z,984.53
2023-03-29T10:17:22.609Z,984.56
2023-03-29T10:29:23.034Z,984.44
2023-03-29T10:41:23.494Z,984.45
2023-03-29T10:53:23.978Z,984.38
2023-03-29T11:05:24.432Z,984.31
2023-03-29T11:17:24.886Z,984.02
2023-03-29T11:29:25.327Z,983.93
2023-03-29T11:41:25.737Z,983.71
2023-03-29T11:53:26.199Z,983.60
2023-03-29T12:05:26.647Z,983.54
2023-03-29T12:17:27.126Z,983.51
2023-03-29T12:29:27.577Z,983.53
2023-03-29T12:41:28.030Z,983.52
2023-03-29T12:53:28.474Z,983.36
2023-03-29T13:05:28.975Z,983.39
2023-03-29T13:17:29.378Z,983.33
2023-03-29T13:29:29.843Z,983.22
2023-03-29T13:41:33.078Z,983.17
2023-03-29T13:53:30.882Z,983.08
2023-03-29T14:05:31.194Z,982.97
2023-03-29T14:17:31.738Z,982.98
2023-03-29T14:29:32.179Z,982.76
2023-03-29T14:41:32.577Z,982.63
2023-03-29T14:53:33.005Z,982.59
2023-03-29T15:05:33.509Z,982.58
2023-03-29T15:17:49.447Z,982.34
2023-03-29T15:29:34.352Z,982.28
2023-03-29T15:41:34.799Z,982.14
2023-03-29T15:53:35.328Z,982.02
2023-03-29T16:05:35.726Z,981.98
2023-03-29T16:17:36.227Z,981.89
2023-03-29T16:29:36.640Z,981.91
2023-03-29T16:41:37.116Z,981.97
2023-03-29T16:53:37.513Z,981.86
2023-03-29T17:05:37.995Z,981.96
2023-03-29T17:17:38.481Z,981.90
2023-03-29T17:29:38.902Z,981.92
2023-03-29T17:41:39.329Z,982.00
2023-03-29T17:53:39.793Z,982.08
2023-03-29T18:05:40.336Z,982.13
2023-03-29T18:17:40.732Z,982.15
2023-03-29T18:29:41.287Z,982.11
2023-03-29T18:41:41.610Z,982.15
2023-03-29T18:53:42.085Z,982.15
2023-03-29T19:05:45.261Z,982.14
2023-03-29T19:17:45.709Z,982.19
2023-03-29T19:29:43.404Z,982.02
2023-03-29T19:41:43.857Z,982.29
2023-03-29T19:53:46.545Z,982.33
2023-03-29T20:05:44.791Z,982.23
2023-03-29T20:17:45.378Z,982.18
2023-03-29T20:29:45.682Z,982.23
2023-03-29T20:41:48.846Z,982.00
2023-03-29T20:53:46.673Z,982.02
2023-03-29T21:05:47.047Z,981.82
2023-03-29T21:17:49.769Z,981.74
2023-03-29T21:29:47.945Z,981.49
2023-03-29T21:41:48.362Z,981.44
2023-03-29T21:53:48.833Z,981.48
2023-03-29T22:05:49.289Z,981.28
2023-03-29T22:17:49.783Z,981.28
2023-03-29T22:29:50.291Z,981.19
2023-03-29T22:41:50.653Z,981.15
2023-03-29T22:53:51.081Z,981.14
2023-03-29T23:05:51.617Z,981.07
2023-03-29T23:17:52.057Z,980.96
2023-03-29T23:29:52.433Z,980.86
2023-03-29T23:41:53.027Z,980.74
2023-03-29T23:53:53.501Z,980.75
